Flight Track Log - Related Links

Times and Time Zones

All times are in EDT time to prevent confusion due to time zone crossing. See the SKW5653 flight status page for this flight to view local times or setup timezone preferences in your user account.

Time Position Orientation Groundspeed Altitude Reporting Facility
EDT Latitude Longitude Course Direction KTS MPH feet Rate Location/Type
Sun 08:58:15 PM 33.8432 -116.4780 127° Southeast  Level FlightAware Approximate
Sun 08:59:15 PM 33.8812 -116.3554 193° South  Level FlightAware Approximate
Sun 09:00:26 PM 33.7833 -116.3833 81° East 246 283 4,100  Level Southern California TRACON
Sun 09:01:54 PM 33.7975 -116.2811 30° Northeast 255 293 7,600 2,230 Climbing Los Angeles Center
Sun 09:02:54 PM 33.8644 -116.2339 29° Northeast 256 295 9,600 2,050 Climbing Los Angeles Center
Sun 09:03:54 PM 33.9353 -116.1864 28° Northeast 269 310 11,700 1,850 Climbing Los Angeles Center
Sun 09:04:54 PM 34.0106 -116.1386 28° Northeast 283 326 13,300 1,550 Climbing Los Angeles Center
Sun 09:05:54 PM 34.0897 -116.0886 29° Northeast 307 353 14,800 1,500 Climbing Los Angeles Center
Sun 09:06:54 PM 34.1669 -116.0358 41° Northeast 307 353 16,300 1,400 Climbing Los Angeles Center
Sun 09:07:54 PM 34.2378 -115.9603 56° Northeast 314 361 17,600 1,300 Climbing Los Angeles Center
Sun 09:08:54 PM 34.2983 -115.8522 56° Northeast 346 398 18,900 1,200 Climbing Los Angeles Center
Sun 09:09:54 PM 34.3564 -115.7464 60° Northeast 365 420 20,000 1,100 Climbing Los Angeles Center
Sun 09:10:54 PM 34.4061 -115.6403 56° Northeast 370 426 21,100 1,000 Climbing Los Angeles Center
Sun 09:11:54 PM 34.4642 -115.5342 56° Northeast 390 449 22,000 900 Climbing Los Angeles Center
Sun 09:12:54 PM 34.5239 -115.4253 57° Northeast 395 455 22,900 900 Climbing Los Angeles Center
Sun 09:13:54 PM 34.5900 -115.3036 59° Northeast 395 455 23,800 850 Climbing Los Angeles Center
Sun 09:14:54 PM 34.6497 -115.1844 57° Northeast 395 455 24,600 750 Climbing Los Angeles Center
Sun 09:15:54 PM 34.7072 -115.0778 58° Northeast 405 466 25,300 850 Climbing Los Angeles Center
Sun 09:16:54 PM 34.7667 -114.9606 57° Northeast 410 472 26,300 800 Climbing Los Angeles Center
Sun 09:17:54 PM 34.8303 -114.8408 58° Northeast 410 472 26,900 600 Climbing Los Angeles Center
Sun 09:18:54 PM 34.8936 -114.7183 58° Northeast 415 478 27,500 650 Climbing Los Angeles Center
Sun 09:19:54 PM 34.9569 -114.5956 58° Northeast 415 478 28,200 600 Climbing Los Angeles Center
Sun 09:20:54 PM 35.0200 -114.4725 58° Northeast 420 483 28,700 600 Climbing Los Angeles Center
Sun 09:21:54 PM 35.0828 -114.3494 58° Northeast 420 483 29,400 650 Climbing Los Angeles Center
Sun 09:22:54 PM 35.1478 -114.2236 58° Northeast 431 496 30,000 600 Climbing Los Angeles Center
Sun 09:23:54 PM 35.2106 -114.1003 58° Northeast 431 496 30,600 600 Climbing Los Angeles Center
Sun 09:24:54 PM 35.2750 -113.9739 58° Northeast 431 496 31,200 650 Climbing Los Angeles Center
Sun 09:25:54 PM 35.3436 -113.8397 58° Northeast 431 496 31,900 650 Climbing Los Angeles Center
Sun 09:26:54 PM 35.4058 -113.7156 57° Northeast 431 496 32,500 550 Climbing Los Angeles Center
Sun 09:27:54 PM 35.4703 -113.5914 59° Northeast 431 496 33,000 250 Climbing Los Angeles Center
Sun 09:28:54 PM 35.5322 -113.4644 58° Northeast 431 496 33,000  Level Los Angeles Center
Sun 09:29:54 PM 35.5961 -113.3397 57° Northeast 431 496 33,000  Level Los Angeles Center
Sun 09:30:54 PM 35.6581 -113.2200 60° Northeast 444 511 33,000  Level Los Angeles Center
Sun 09:31:54 PM 35.7233 -113.0794 58° Northeast 443 510 33,000  Level Los Angeles Center
Sun 09:32:54 PM 35.7889 -112.9489 58° Northeast 438 504 33,000  Level Los Angeles Center
Sun 09:33:54 PM 35.8544 -112.8183 60° Northeast 438 504 33,000  Level Los Angeles Center
Sun 09:34:54 PM 35.9156 -112.6875 59° Northeast 438 504 33,000  Level Los Angeles Center
Sun 09:35:54 PM 35.9725 -112.5722 58° Northeast 438 504 33,000  Level Los Angeles Center
Sun 09:36:54 PM 36.0436 -112.4306 60° Northeast 438 504 33,000  Level Los Angeles Center
Sun 09:38:30 PM 36.1419 -112.2203 59° Northeast 442 509 33,000  Level Denver Center
Sun 09:39:32 PM 36.2067 -112.0861 59° Northeast 444 511 33,000  Level Denver Center
Sun 09:40:35 PM 36.2697 -111.9542 59° Northeast 442 509 33,000  Level Denver Center
Sun 09:42:39 PM 36.3978 -111.6850 60° Northeast 447 514 33,000  Level Denver Center
Sun 09:43:42 PM 36.4614 -111.5503 59° Northeast 447 514 33,000  Level Denver Center
Sun 09:44:44 PM 36.5253 -111.4156 60° Northeast 447 514 33,000  Level Denver Center
Sun 09:45:47 PM 36.5997 -111.2536 60° Northeast 446 513 33,000  Level Denver Center
Sun 09:46:49 PM 36.6639 -111.1172 60° Northeast 448 516 33,000  Level Denver Center
Sun 09:47:52 PM 36.7272 -110.9797 59° Northeast 450 518 33,000  Level Denver Center
Sun 09:48:54 PM 36.7919 -110.8431 60° Northeast 451 519 33,000  Level Denver Center
Sun 09:49:56 PM 36.8550 -110.7058 60° Northeast 450 518 33,000  Level Denver Center
Sun 09:50:59 PM 36.9186 -110.5686 60° Northeast 450 518 33,000  Level Denver Center
Sun 09:52:02 PM 36.9819 -110.4314 60° Northeast 449 517 33,000  Level Denver Center
Sun 09:53:04 PM 37.0564 -110.2675 60° Northeast 447 514 33,000  Level Denver Center
Sun 09:54:07 PM 37.1156 -110.1383 61° Northeast 449 517 33,000  Level Denver Center
Sun 09:55:09 PM 37.1842 -109.9858 60° Northeast 449 517 33,000  Level Denver Center
Sun 09:56:12 PM 37.2428 -109.8558 61° Northeast 448 516 33,000  Level Denver Center
Sun 09:57:14 PM 37.3117 -109.7022 61° Northeast 450 518 33,000  Level Denver Center
Sun 09:58:17 PM 37.3703 -109.5692 61° Northeast 452 520 33,000  Level Denver Center
Sun 09:59:19 PM 37.4389 -109.4158 61° Northeast 451 519 33,000  Level Denver Center
Sun 10:00:22 PM 37.4967 -109.2847 61° Northeast 448 516 33,000  Level Denver Center
Sun 10:01:24 PM 37.5642 -109.1306 61° Northeast 449 517 33,000  Level Denver Center
Sun 10:02:27 PM 37.6214 -108.9981 61° Northeast 448 516 33,000  Level Denver Center
Sun 10:03:29 PM 37.6894 -108.8447 62° Northeast 448 516 33,000  Level Denver Center
Sun 10:04:32 PM 37.7467 -108.7103 61° Northeast 451 519 33,000  Level Denver Center
Sun 10:05:34 PM 37.8133 -108.5561 61° Northeast 449 517 33,000  Level Denver Center
Sun 10:06:36 PM 37.8694 -108.4264 62° Northeast 444 511 33,000  Level Denver Center
Sun 10:07:39 PM 37.9356 -108.2717 61° Northeast 445 512 33,000  Level Denver Center
Sun 10:08:41 PM 37.9922 -108.1400 62° Northeast 445 512 33,000  Level Denver Center
Sun 10:09:44 PM 38.0575 -107.9853 62° Northeast 445 512 33,000  Level Denver Center
Sun 10:10:46 PM 38.1111 -107.8583 62° Northeast 444 511 33,000  Level Denver Center
Sun 10:11:49 PM 38.1764 -107.7036 62° Northeast 444 511 33,000  Level Denver Center
Sun 10:12:51 PM 38.2317 -107.5719 62° Northeast 443 510 33,000  Level Denver Center
Sun 10:13:54 PM 38.2956 -107.4178 62° Northeast 442 509 33,000  Level Denver Center
Sun 10:14:56 PM 38.3506 -107.2864 62° Northeast 441 507 33,000  Level Denver Center
Sun 10:15:59 PM 38.4139 -107.1331 59° Northeast 440 506 33,000  Level Denver Center
Sun 10:17:01 PM 38.4739 -107.0042 51° Northeast 442 509 33,000  Level Denver Center
Sun 10:18:03 PM 38.5597 -106.8686 53° Northeast 445 512 33,000 -144 Level Denver Center
Sun 10:19:06 PM 38.6300 -106.7511 52° Northeast 438 504 32,700 -480 Descending Denver Center
Sun 10:20:08 PM 38.7150 -106.6117 52° Northeast 443 510 32,000 -581 Descending Denver Center
Sun 10:21:10 PM 38.7883 -106.4903 52° Northeast 448 516 31,500 -576 Descending Denver Center
Sun 10:22:13 PM 38.8761 -106.3481 52° Northeast 454 522 30,800 -624 Descending Denver Center
Sun 10:23:15 PM 38.9617 -106.2067 52° Northeast 451 519 30,200 -484 Descending Denver Center
Sun 10:24:17 PM 39.0308 -106.0911 52° Northeast 456 525 29,800 -774 Descending Denver Center
Sun 10:25:19 PM 39.1214 -105.9397 52° Northeast 455 524 28,600 -2,064 Descending Denver Center
Sun 10:26:22 PM 39.2000 -105.8103 53° Northeast 454 522 25,500 -2,928 Descending Denver Center
Sun 10:27:24 PM 39.2722 -105.6875 52° Northeast 436 502 22,500 -2,952 Descending Denver Center
Sun 10:28:26 PM 39.3433 -105.5686 52° Northeast 414 476 19,400 -1,790 Descending Denver Center
Sun 10:29:28 PM 39.4092 -105.4581 52° Northeast 390 449 18,800 -1,056 Descending Denver Center
Sun 10:30:31 PM 39.4667 -105.3619 80° East 338 389 17,200 -1,536 Descending Denver Center
Sun 10:31:33 PM 39.4825 -105.2389 86° East 359 413 15,600 -1,694 Descending Denver Center
Sun 10:32:35 PM 39.4889 -105.1036 87° East 323 372 13,700 -1,258 Descending Denver Center
Sun 10:33:37 PM 39.4931 -104.9881 83° East 320 368 13,000 -435 Descending Denver Center
Sun 10:34:39 PM 39.5031 -104.8789 64° Northeast 308 354 12,800 -953 Descending Denver Center
Sun 10:35:24 PM 39.5333 -104.8000 30° Northeast 302 348 11,300 -1,886 Descending Denver TRACON
Sun 10:36:24 PM 39.6000 -104.7500 30° Northeast 300 345 9,500 -1,750 Descending Denver TRACON
Sun 10:37:24 PM 39.6667 -104.7000 21° North 262 302 7,800 -1,250 Descending Denver TRACON
Sun 10:38:24 PM 39.7333 -104.6667 21° North 225 259 7,000 -800 Descending Denver TRACON

Login

Don't have an account? Register now (free) for customized features, flight alerts, and more!